createdAt,value
2018-09-24T00:00:22.115Z,22.36
2018-09-24T00:01:22.621Z,22.44
2018-09-24T00:02:23.202Z,22.44
2018-09-24T00:03:23.792Z,22.41
2018-09-24T00:04:27.392Z,22.38
2018-09-24T00:06:43.447Z,22.41
2018-09-24T00:07:44.078Z,22.39
2018-09-24T00:08:44.659Z,22.39
2018-09-24T00:09:45.240Z,22.43
2018-09-24T00:10:45.823Z,22.38
2018-09-24T00:11:46.400Z,22.36
2018-09-24T00:12:46.982Z,22.44
2018-09-24T00:13:47.562Z,22.44
2018-09-24T00:14:48.146Z,22.43
2018-09-24T00:15:48.767Z,22.39
2018-09-24T00:16:49.349Z,22.39
2018-09-24T00:17:49.931Z,22.39
2018-09-24T00:19:35.075Z,22.44
2018-09-24T00:20:35.700Z,22.41
2018-09-24T00:21:36.278Z,22.43
2018-09-24T00:22:36.861Z,22.48
2018-09-24T00:23:37.533Z,22.47
2018-09-24T00:24:38.114Z,22.41
2018-09-24T00:25:38.697Z,22.47
2018-09-24T00:26:39.278Z,22.47
2018-09-24T00:27:39.949Z,22.43
2018-09-24T00:28:40.532Z,22.43
2018-09-24T00:29:41.118Z,22.41
2018-09-24T00:30:41.696Z,22.39
2018-09-24T00:31:42.276Z,22.38
2018-09-24T00:32:42.855Z,22.47
2018-09-24T00:33:43.433Z,22.41
2018-09-24T00:34:44.012Z,22.35
2018-09-24T00:35:44.592Z,22.44
2018-09-24T00:36:45.170Z,22.43
2018-09-24T00:37:45.750Z,22.41
2018-09-24T00:38:46.329Z,22.43
2018-09-24T00:39:46.909Z,22.38
2018-09-24T00:40:47.539Z,22.43
2018-09-24T00:41:48.122Z,22.43
2018-09-24T00:42:48.749Z,22.38
2018-09-24T00:43:49.330Z,22.41
2018-09-24T00:44:49.957Z,22.44
2018-09-24T00:45:50.537Z,22.36
2018-09-24T00:46:51.125Z,22.38
2018-09-24T00:47:51.741Z,22.38
2018-09-24T00:48:52.322Z,22.33
2018-09-24T00:49:52.903Z,22.36
2018-09-24T00:50:53.482Z,22.39
2018-09-24T00:51:54.062Z,22.43
2018-09-24T00:52:54.644Z,22.43
2018-09-24T00:53:55.279Z,22.43
2018-09-24T00:54:55.908Z,22.39
2018-09-24T00:55:56.489Z,22.36
2018-09-24T00:56:57.069Z,22.36
2018-09-24T00:57:57.651Z,22.38
2018-09-24T00:58:58.237Z,22.41
2018-09-24T00:59:58.811Z,22.36
2018-09-24T01:00:59.444Z,22.33
2018-09-24T01:02:00.026Z,22.33
2018-09-24T01:03:00.609Z,22.39
2018-09-24T01:04:01.189Z,22.32
2018-09-24T01:05:01.820Z,22.45
2018-09-24T01:06:02.407Z,22.36
2018-09-24T01:07:47.547Z,22.36
2018-09-24T01:08:48.130Z,22.36
2018-09-24T01:09:48.712Z,22.25
2018-09-24T01:10:49.294Z,22.33
2018-09-24T01:11:49.875Z,22.33
2018-09-24T01:12:50.457Z,22.38
2018-09-24T01:13:51.078Z,22.30
2018-09-24T01:14:51.661Z,22.29
2018-09-24T01:15:52.242Z,22.39
2018-09-24T01:16:52.822Z,22.28
2018-09-24T01:17:53.405Z,22.25
2018-09-24T01:18:54.076Z,22.25
2018-09-24T01:19:54.657Z,22.29
2018-09-24T01:20:55.437Z,22.26
2018-09-24T01:21:56.020Z,22.29
2018-09-24T01:22:56.596Z,22.38
2018-09-24T01:23:57.176Z,22.29
2018-09-24T01:24:57.755Z,22.29
2018-09-24T01:25:58.335Z,22.26
2018-09-24T01:26:58.963Z,22.32
2018-09-24T01:27:59.544Z,22.28
2018-09-24T01:29:00.126Z,22.29
2018-09-24T01:30:00.706Z,22.22
2018-09-24T01:31:01.288Z,22.26
2018-09-24T01:32:01.910Z,22.28
2018-09-24T01:33:02.487Z,22.29
2018-09-24T01:34:03.067Z,22.29
2018-09-24T01:35:03.648Z,22.28
2018-09-24T01:36:04.277Z,22.23
2018-09-24T01:37:04.856Z,22.26
2018-09-24T01:38:05.438Z,22.25
2018-09-24T01:39:06.018Z,22.22
2018-09-24T01:40:06.650Z,22.26
2018-09-24T01:41:07.283Z,22.30
2018-09-24T01:42:07.864Z,22.29
2018-09-24T01:43:08.445Z,22.23
2018-09-24T01:44:09.025Z,22.17
2018-09-24T01:45:09.656Z,22.23
2018-09-24T01:46:10.288Z,22.29
2018-09-24T01:47:10.867Z,22.26
2018-09-24T01:48:11.448Z,22.26
2018-09-24T01:49:12.032Z,22.18
2018-09-24T01:50:12.612Z,22.23
2018-09-24T01:51:13.245Z,22.23
2018-09-24T01:52:13.870Z,22.22
2018-09-24T01:53:14.491Z,22.22
2018-09-24T01:54:15.076Z,22.20
2018-09-24T01:56:00.168Z,22.18
2018-09-24T01:57:00.749Z,22.25
2018-09-24T01:58:01.332Z,22.10
2018-09-24T01:59:01.914Z,22.23
2018-09-24T02:00:02.495Z,22.18
2018-09-24T02:01:03.074Z,22.10
2018-09-24T02:02:03.654Z,22.17
2018-09-24T02:03:04.234Z,22.15
2018-09-24T02:04:04.863Z,22.10
2018-09-24T02:05:05.446Z,22.18
2018-09-24T02:06:06.122Z,22.20
2018-09-24T02:07:06.794Z,22.17
2018-09-24T02:08:07.375Z,22.08
2018-09-24T02:09:07.953Z,22.07
2018-09-24T02:10:08.533Z,22.14
2018-09-24T02:11:09.116Z,22.15
2018-09-24T02:12:09.691Z,22.17
2018-09-24T02:13:10.268Z,22.17
2018-09-24T02:14:10.847Z,22.22
2018-09-24T02:15:11.428Z,22.14
2018-09-24T02:16:12.007Z,22.13
2018-09-24T02:17:12.588Z,22.10
2018-09-24T02:18:13.167Z,22.14
2018-09-24T02:19:13.747Z,22.15
2018-09-24T02:20:14.379Z,22.13
2018-09-24T02:21:14.958Z,22.11
2018-09-24T02:22:15.539Z,22.15
2018-09-24T02:23:16.119Z,22.15
2018-09-24T02:24:16.699Z,22.15
2018-09-24T02:25:17.280Z,22.07
2018-09-24T02:26:17.910Z,22.13
2018-09-24T02:27:18.489Z,22.17
2018-09-24T02:28:19.120Z,22.11
2018-09-24T02:29:19.703Z,22.14
2018-09-24T02:30:20.285Z,22.10
2018-09-24T02:31:20.867Z,22.06
2018-09-24T02:32:21.451Z,22.11
2018-09-24T02:33:22.024Z,22.14
2018-09-24T02:34:22.605Z,22.13
2018-09-24T02:35:23.182Z,22.11
2018-09-24T02:36:23.763Z,22.11
2018-09-24T02:37:24.394Z,22.13
2018-09-24T02:38:24.969Z,22.14
2018-09-24T02:39:25.553Z,22.11
2018-09-24T02:40:26.131Z,22.06
2018-09-24T02:41:26.712Z,22.08
2018-09-24T02:42:27.296Z,22.07
2018-09-24T02:44:12.580Z,22.14
2018-09-24T02:45:13.162Z,22.04
2018-09-24T02:46:13.742Z,22.13
2018-09-24T02:47:14.325Z,22.13
2018-09-24T02:48:14.905Z,22.04
2018-09-24T02:49:15.484Z,22.07
2018-09-24T02:50:16.114Z,22.06
2018-09-24T02:51:16.745Z,22.06
2018-09-24T02:52:17.325Z,22.08
2018-09-24T02:53:17.904Z,22.11
2018-09-24T02:54:18.484Z,22.06
2018-09-24T02:55:19.063Z,22.02
2018-09-24T02:56:19.682Z,22.10
2018-09-24T02:57:20.261Z,22.06
2018-09-24T02:58:20.840Z,22.02
2018-09-24T02:59:21.470Z,22.15
2018-09-24T03:00:22.049Z,22.10
2018-09-24T03:01:22.649Z,22.15
2018-09-24T03:02:23.208Z,22.07
2018-09-24T03:03:23.789Z,22.04
2018-09-24T03:04:24.368Z,22.04
2018-09-24T03:05:24.958Z,22.06
2018-09-24T03:06:25.578Z,22.04
2018-09-24T03:07:26.160Z,22.07
2018-09-24T03:08:26.741Z,22.13
2018-09-24T03:09:27.370Z,22.08
2018-09-24T03:10:27.950Z,22.07
2018-09-24T03:11:28.533Z,22.06
2018-09-24T03:12:29.164Z,22.06
2018-09-24T03:13:29.743Z,22.10
2018-09-24T03:14:30.322Z,21.99
2018-09-24T03:15:30.902Z,22.07
2018-09-24T03:16:31.484Z,22.11
2018-09-24T03:17:32.065Z,22.08
2018-09-24T03:18:32.647Z,22.08
2018-09-24T03:19:33.278Z,22.06
2018-09-24T03:20:33.858Z,22.02
2018-09-24T03:21:34.440Z,22.00
2018-09-24T03:22:35.021Z,21.99
2018-09-24T03:23:35.653Z,21.99
2018-09-24T03:24:36.231Z,21.99
2018-09-24T03:25:36.813Z,21.96
2018-09-24T03:26:37.435Z,21.96
2018-09-24T03:27:38.017Z,21.87
2018-09-24T03:28:38.650Z,21.99
2018-09-24T03:29:39.231Z,21.98
2018-09-24T03:30:39.817Z,22.07
2018-09-24T03:32:24.915Z,21.87
2018-09-24T03:33:25.483Z,21.96
2018-09-24T03:34:26.064Z,21.92
2018-09-24T03:35:26.647Z,21.95
2018-09-24T03:36:27.226Z,21.92
2018-09-24T03:37:27.805Z,21.93
2018-09-24T03:38:28.436Z,21.95
2018-09-24T03:39:29.067Z,21.93
2018-09-24T03:40:29.645Z,22.02
2018-09-24T03:41:30.226Z,21.93
2018-09-24T03:42:30.807Z,21.96
2018-09-24T03:43:31.386Z,21.92
2018-09-24T03:44:31.966Z,21.89
2018-09-24T03:45:32.561Z,21.91
2018-09-24T03:46:33.126Z,21.92
2018-09-24T03:47:33.757Z,21.99
2018-09-24T03:48:34.336Z,22.02
2018-09-24T03:49:34.914Z,21.95
2018-09-24T03:50:35.492Z,22.06
2018-09-24T03:51:36.072Z,22.06
2018-09-24T03:52:36.653Z,21.99
2018-09-24T03:53:37.234Z,22.00
2018-09-24T03:54:37.865Z,21.85
2018-09-24T03:55:38.443Z,21.96
2018-09-24T03:56:39.021Z,22.00
2018-09-24T03:57:39.600Z,21.89
2018-09-24T03:58:40.230Z,21.95
2018-09-24T03:59:40.811Z,21.98
2018-09-24T04:00:41.391Z,21.93
2018-09-24T04:01:41.973Z,21.91
2018-09-24T04:02:42.552Z,21.95
2018-09-24T04:03:43.132Z,21.92
2018-09-24T04:04:43.761Z,21.93
2018-09-24T04:05:44.343Z,21.85
2018-09-24T04:06:44.924Z,21.89
2018-09-24T04:07:45.504Z,21.87
2018-09-24T04:08:46.085Z,21.89
2018-09-24T04:09:46.768Z,21.91
2018-09-24T04:10:47.288Z,21.91
2018-09-24T04:11:47.831Z,21.92
2018-09-24T04:12:48.458Z,21.91
2018-09-24T04:13:49.040Z,21.95
2018-09-24T04:14:49.624Z,21.89
2018-09-24T04:15:50.196Z,21.89
2018-09-24T04:16:55.828Z,21.92
2018-09-24T04:17:56.459Z,21.92
2018-09-24T04:18:57.042Z,21.89
2018-09-24T04:20:42.177Z,21.91
2018-09-24T04:21:42.811Z,21.91
2018-09-24T04:22:43.389Z,21.89
2018-09-24T04:23:43.970Z,21.82
2018-09-24T04:24:44.549Z,21.85
2018-09-24T04:25:45.185Z,21.85
2018-09-24T04:26:45.751Z,21.91
2018-09-24T04:27:46.331Z,21.89
2018-09-24T04:28:46.913Z,21.93
2018-09-24T04:29:47.493Z,21.87
2018-09-24T04:30:48.076Z,21.89
2018-09-24T04:31:48.704Z,21.91
2018-09-24T04:32:49.286Z,21.89
2018-09-24T04:33:49.865Z,21.93
2018-09-24T04:34:50.446Z,21.91
2018-09-24T04:35:51.025Z,21.87
2018-09-24T04:36:51.654Z,21.91
2018-09-24T04:37:52.283Z,21.89
2018-09-24T04:38:52.862Z,21.89
2018-09-24T04:39:53.441Z,21.85
2018-09-24T04:40:54.024Z,21.82
2018-09-24T04:41:54.602Z,21.85
2018-09-24T04:42:55.184Z,21.87
2018-09-24T04:43:55.759Z,21.79
2018-09-24T04:44:56.339Z,21.80
2018-09-24T04:45:56.946Z,21.80
2018-09-24T04:46:57.496Z,21.79
2018-09-24T04:47:58.076Z,21.83
2018-09-24T04:48:58.737Z,21.87
2018-09-24T04:49:59.286Z,21.87
2018-09-24T04:50:59.866Z,21.79
2018-09-24T04:52:00.447Z,21.77
2018-09-24T04:53:01.077Z,21.77
2018-09-24T04:54:01.711Z,21.79
2018-09-24T04:55:02.289Z,21.87
2018-09-24T04:56:02.869Z,21.79
2018-09-24T04:57:03.449Z,21.80
2018-09-24T04:58:04.028Z,21.76
2018-09-24T04:59:04.610Z,21.83
2018-09-24T05:00:05.191Z,21.77
2018-09-24T05:01:05.820Z,21.80
2018-09-24T05:02:06.401Z,21.76
2018-09-24T05:03:06.978Z,21.76
2018-09-24T05:04:07.560Z,21.77
2018-09-24T05:05:08.191Z,21.72
2018-09-24T05:06:08.825Z,21.79
2018-09-24T05:07:09.447Z,21.76
2018-09-24T05:08:54.541Z,21.76
2018-09-24T05:09:55.122Z,21.83
2018-09-24T05:10:55.703Z,21.73
2018-09-24T05:11:56.339Z,21.75
2018-09-24T05:12:56.915Z,21.70
2018-09-24T05:13:57.747Z,21.77
2018-09-24T05:14:58.363Z,21.73
2018-09-24T05:15:59.030Z,21.73
2018-09-24T05:16:59.572Z,21.77
2018-09-24T05:18:00.153Z,21.70
2018-09-24T05:19:00.736Z,21.76
2018-09-24T05:20:01.315Z,21.79
2018-09-24T05:21:01.894Z,21.75
2018-09-24T05:22:02.473Z,21.72
2018-09-24T05:23:03.051Z,21.70
2018-09-24T05:24:03.630Z,21.76
2018-09-24T05:25:04.262Z,21.73
2018-09-24T05:26:04.839Z,21.73
2018-09-24T05:27:05.418Z,21.73
2018-09-24T05:28:06.001Z,21.72
2018-09-24T05:29:06.579Z,21.70
2018-09-24T05:30:07.159Z,21.70
2018-09-24T05:31:07.787Z,21.75
2018-09-24T05:32:08.468Z,21.67
2018-09-24T05:33:09.048Z,21.70
2018-09-24T05:34:09.726Z,21.66
2018-09-24T05:35:10.305Z,21.73
2018-09-24T05:36:10.883Z,21.69
2018-09-24T05:37:11.462Z,21.72
2018-09-24T05:38:12.043Z,21.70
2018-09-24T05:39:12.623Z,21.66
2018-09-24T05:40:13.204Z,21.67
2018-09-24T05:41:13.817Z,21.73
2018-09-24T05:42:14.368Z,21.69
2018-09-24T05:43:14.948Z,21.66
2018-09-24T05:44:15.528Z,21.60
2018-09-24T05:45:16.107Z,21.69
2018-09-24T05:46:16.687Z,21.70
2018-09-24T05:47:17.267Z,21.67
2018-09-24T05:48:17.848Z,21.69
2018-09-24T05:49:18.476Z,21.60
2018-09-24T05:50:19.057Z,21.70
2018-09-24T05:51:19.686Z,21.72
2018-09-24T05:52:20.266Z,21.54
2018-09-24T05:53:20.901Z,21.54
2018-09-24T05:54:21.532Z,21.54
2018-09-24T05:55:22.059Z,21.58
2018-09-24T05:57:07.156Z,21.67
2018-09-24T05:58:07.737Z,21.57
2018-09-24T05:59:08.318Z,21.64
2018-09-24T06:00:08.943Z,21.62
2018-09-24T06:01:09.524Z,21.66
2018-09-24T06:02:10.103Z,21.66
2018-09-24T06:03:10.686Z,21.67
2018-09-24T06:04:11.307Z,21.62
2018-09-24T06:05:11.887Z,21.67
2018-09-24T06:06:12.477Z,21.62
2018-09-24T06:07:13.143Z,21.58
2018-09-24T06:08:13.721Z,21.64
2018-09-24T06:09:14.351Z,21.60
2018-09-24T06:10:14.982Z,21.61
2018-09-24T06:11:15.563Z,21.64
2018-09-24T06:12:16.147Z,21.64
2018-09-24T06:13:16.724Z,21.58
2018-09-24T06:14:17.353Z,21.60
2018-09-24T06:15:17.931Z,21.58
2018-09-24T06:16:18.510Z,21.57
2018-09-24T06:17:19.089Z,21.61
2018-09-24T06:18:19.667Z,21.60
2018-09-24T06:19:20.245Z,21.57
2018-09-24T06:20:20.823Z,21.58
2018-09-24T06:21:21.451Z,21.60
2018-09-24T06:22:22.083Z,21.60
2018-09-24T06:23:22.660Z,21.54
2018-09-24T06:24:23.241Z,21.60
2018-09-24T06:25:23.820Z,21.58
2018-09-24T06:26:24.451Z,21.55
2018-09-24T06:27:25.031Z,21.61
2018-09-24T06:28:25.648Z,21.58
2018-09-24T06:29:26.191Z,21.55
2018-09-24T06:30:26.813Z,21.57
2018-09-24T06:31:27.443Z,21.58
2018-09-24T06:32:28.026Z,21.52
2018-09-24T06:33:28.605Z,21.52
2018-09-24T06:34:29.184Z,21.60
2018-09-24T06:35:29.764Z,21.55
2018-09-24T06:36:30.342Z,21.57
2018-09-24T06:37:30.921Z,21.52
2018-09-24T06:38:31.501Z,21.52
2018-09-24T06:39:32.080Z,21.50
2018-09-24T06:40:32.711Z,21.52
2018-09-24T06:41:33.291Z,21.50
2018-09-24T06:42:33.871Z,21.51
2018-09-24T06:43:34.449Z,21.54
2018-09-24T06:45:19.696Z,21.51
2018-09-24T06:46:20.277Z,21.57
2018-09-24T06:47:20.910Z,21.51
2018-09-24T06:48:21.491Z,21.55
2018-09-24T06:49:22.070Z,21.60
2018-09-24T06:50:22.651Z,21.55
2018-09-24T06:51:23.230Z,21.60
2018-09-24T06:52:23.811Z,21.57
2018-09-24T06:53:24.440Z,21.58
2018-09-24T06:54:25.022Z,21.55
2018-09-24T06:55:25.604Z,21.60
2018-09-24T06:56:26.181Z,21.60
2018-09-24T06:57:26.763Z,21.58
2018-09-24T06:58:27.341Z,21.54
2018-09-24T06:59:28.034Z,21.54
2018-09-24T07:00:28.548Z,21.54
2018-09-24T07:01:29.128Z,21.54
2018-09-24T07:02:29.708Z,21.54
2018-09-24T07:03:30.337Z,21.60
2018-09-24T07:04:30.916Z,21.52
2018-09-24T07:05:31.563Z,21.52
2018-09-24T07:06:32.073Z,21.54
2018-09-24T07:07:32.653Z,21.52
2018-09-24T07:08:33.232Z,21.46
2018-09-24T07:09:33.810Z,21.46
2018-09-24T07:10:34.441Z,21.54
2018-09-24T07:11:35.021Z,21.55
2018-09-24T07:12:35.600Z,21.58
2018-09-24T07:13:36.183Z,21.57
2018-09-24T07:14:36.759Z,21.62
2018-09-24T07:15:37.380Z,21.64
2018-09-24T07:16:37.960Z,21.57
2018-09-24T07:17:38.589Z,21.60
2018-09-24T07:18:39.217Z,21.58
2018-09-24T07:19:39.797Z,21.60
2018-09-24T07:20:40.378Z,21.52
2018-09-24T07:21:40.958Z,21.54
2018-09-24T07:22:41.538Z,21.52
2018-09-24T07:23:42.121Z,21.57
2018-09-24T07:24:42.699Z,21.55
2018-09-24T07:25:43.279Z,21.57
2018-09-24T07:26:43.859Z,21.51
2018-09-24T07:27:44.531Z,21.57
2018-09-24T07:28:45.065Z,21.55
2018-09-24T07:29:45.734Z,21.46
2018-09-24T07:30:46.313Z,21.50
2018-09-24T07:31:46.891Z,21.46
2018-09-24T07:33:31.990Z,21.20
2018-09-24T07:34:32.573Z,21.29
2018-09-24T07:35:33.209Z,21.22
2018-09-24T07:36:33.885Z,21.32
2018-09-24T07:37:34.467Z,21.30
2018-09-24T07:38:35.051Z,21.32
2018-09-24T07:39:35.635Z,21.40
2018-09-24T07:40:36.263Z,21.43
2018-09-24T07:41:36.844Z,21.40
2018-09-24T07:42:37.429Z,21.45
2018-09-24T07:43:38.015Z,21.45
2018-09-24T07:44:38.593Z,21.48
2018-09-24T07:45:44.229Z,21.51
2018-09-24T07:46:44.865Z,21.54
2018-09-24T07:47:45.494Z,21.58
2018-09-24T07:48:46.078Z,21.60
2018-09-24T07:49:46.660Z,21.61
2018-09-24T07:50:47.244Z,21.62
2018-09-24T07:51:47.868Z,21.70
2018-09-24T07:52:48.452Z,21.69
2018-09-24T07:53:49.080Z,21.70
2018-09-24T07:54:49.708Z,21.62
2018-09-24T07:55:50.298Z,21.69
2018-09-24T07:56:50.874Z,21.69
2018-09-24T07:57:51.456Z,21.67
2018-09-24T07:58:52.036Z,21.72
2018-09-24T07:59:52.624Z,21.70
2018-09-24T08:00:53.227Z,21.73
2018-09-24T08:01:53.879Z,21.70
2018-09-24T08:02:54.463Z,21.73
2018-09-24T08:03:55.096Z,21.79
2018-09-24T08:04:55.679Z,21.79
2018-09-24T08:05:56.265Z,21.73
2018-09-24T08:06:56.911Z,21.85
2018-09-24T08:07:57.483Z,21.77
2018-09-24T08:08:58.068Z,21.77
2018-09-24T08:09:58.652Z,21.80
2018-09-24T08:10:59.237Z,21.80
2018-09-24T08:11:59.820Z,21.80
2018-09-24T08:13:00.447Z,21.87
2018-09-24T08:14:00.987Z,21.92
2018-09-24T08:15:01.574Z,21.89
2018-09-24T08:16:02.157Z,21.92
2018-09-24T08:17:02.787Z,21.83
2018-09-24T08:18:03.413Z,21.95
2018-09-24T08:19:04.047Z,21.85
2018-09-24T08:20:04.681Z,21.91
2018-09-24T08:21:49.777Z,21.89
2018-09-24T08:22:50.372Z,21.87
2018-09-24T08:23:50.990Z,21.92
2018-09-24T08:24:51.576Z,21.87
2018-09-24T08:25:52.161Z,21.89
2018-09-24T08:26:52.744Z,21.96
2018-09-24T08:27:53.380Z,21.99
2018-09-24T08:28:53.998Z,21.93
2018-09-24T08:29:54.555Z,21.95
2018-09-24T08:30:55.140Z,21.89
2018-09-24T08:31:55.724Z,21.92
2018-09-24T08:32:56.308Z,21.89
2018-09-24T08:33:56.892Z,21.96
2018-09-24T08:34:57.476Z,22.06
2018-09-24T08:35:58.060Z,22.02
2018-09-24T08:36:58.643Z,22.07
2018-09-24T08:37:59.279Z,22.08
2018-09-24T08:38:59.810Z,22.07
2018-09-24T08:40:00.394Z,22.07
2018-09-24T08:41:01.030Z,21.98
2018-09-24T08:42:01.667Z,22.10
2018-09-24T08:43:02.242Z,22.06
2018-09-24T08:44:02.828Z,22.04
2018-09-24T08:45:03.462Z,22.15
2018-09-24T08:46:04.098Z,22.11
2018-09-24T08:47:04.679Z,22.10
2018-09-24T08:48:05.313Z,22.13
2018-09-24T08:49:05.900Z,22.11
2018-09-24T08:50:06.533Z,22.18
2018-09-24T08:51:07.119Z,22.20
2018-09-24T08:52:07.707Z,22.15
2018-09-24T08:53:08.287Z,22.17
2018-09-24T08:54:08.873Z,22.25
2018-09-24T08:55:09.459Z,22.28
2018-09-24T08:56:10.047Z,22.23
2018-09-24T08:57:10.692Z,22.23
2018-09-24T08:58:11.281Z,22.23
2018-09-24T08:59:11.839Z,22.26
2018-09-24T09:00:12.426Z,22.23
2018-09-24T09:01:13.062Z,22.25
2018-09-24T09:02:13.697Z,22.26
2018-09-24T09:03:14.323Z,22.23
2018-09-24T09:04:14.906Z,22.28
2018-09-24T09:05:15.543Z,22.38
2018-09-24T09:06:16.129Z,22.39
2018-09-24T09:07:16.713Z,22.33
2018-09-24T09:08:17.313Z,22.35
2018-09-24T09:10:02.397Z,22.38
2018-09-24T09:11:02.989Z,22.36
2018-09-24T09:12:03.570Z,22.41
2018-09-24T09:13:04.157Z,22.43
2018-09-24T09:14:04.786Z,22.41
2018-09-24T09:15:05.369Z,22.39
2018-09-24T09:16:05.956Z,22.45
2018-09-24T09:17:06.541Z,22.38
2018-09-24T09:18:07.128Z,22.47
2018-09-24T09:19:07.754Z,22.51
2018-09-24T09:20:08.342Z,22.53
2018-09-24T09:21:08.975Z,22.48
2018-09-24T09:22:09.609Z,22.47
2018-09-24T09:23:10.193Z,22.50
2018-09-24T09:24:10.802Z,22.50
2018-09-24T09:25:11.512Z,22.54
2018-09-24T09:26:12.099Z,22.62
2018-09-24T09:27:12.684Z,22.62
2018-09-24T09:28:13.266Z,22.62
2018-09-24T09:29:13.862Z,22.60
2018-09-24T09:30:14.437Z,22.63
2018-09-24T09:31:15.020Z,22.65
2018-09-24T09:32:15.605Z,22.68
2018-09-24T09:33:16.188Z,22.69
2018-09-24T09:34:16.776Z,22.70
2018-09-24T09:35:17.389Z,22.73
2018-09-24T09:36:17.944Z,22.76
2018-09-24T09:37:18.531Z,22.70
2018-09-24T09:38:19.116Z,22.80
2018-09-24T09:39:19.700Z,22.75
2018-09-24T09:40:20.333Z,22.90
2018-09-24T09:41:21.072Z,22.81
2018-09-24T09:42:21.657Z,22.83
2018-09-24T09:43:22.242Z,22.87
2018-09-24T09:44:22.828Z,22.84
2018-09-24T09:45:23.465Z,22.88
2018-09-24T09:46:24.099Z,22.88
2018-09-24T09:47:24.683Z,22.91
2018-09-24T09:48:25.268Z,22.98
2018-09-24T09:49:25.854Z,23.06
2018-09-24T09:50:26.439Z,22.99
2018-09-24T09:51:27.025Z,23.05
2018-09-24T09:52:27.612Z,23.03
2018-09-24T09:53:28.240Z,23.18
2018-09-24T09:54:28.824Z,23.15
2018-09-24T09:55:29.413Z,23.20
2018-09-24T09:56:30.001Z,23.15
2018-09-24T09:58:15.140Z,23.21
2018-09-24T09:59:15.786Z,23.21
2018-09-24T10:00:16.365Z,23.25
2018-09-24T10:01:16.951Z,23.27
2018-09-24T10:02:17.537Z,23.37
2018-09-24T10:03:18.275Z,23.37
2018-09-24T10:04:18.862Z,23.41
2018-09-24T10:05:19.502Z,23.40
2018-09-24T10:06:20.378Z,23.47
2018-09-24T10:07:20.965Z,23.48
2018-09-24T10:08:21.553Z,23.50
2018-09-24T10:09:22.139Z,23.54
2018-09-24T10:10:22.776Z,23.55
2018-09-24T10:11:23.364Z,23.58
2018-09-24T10:12:23.950Z,23.61
2018-09-24T10:13:24.535Z,23.71
2018-09-24T10:14:25.121Z,23.80
2018-09-24T10:15:25.707Z,23.73
2018-09-24T10:16:26.348Z,23.84
2018-09-24T10:17:26.928Z,23.77
2018-09-24T10:18:27.566Z,23.91
2018-09-24T10:19:28.153Z,23.93
2018-09-24T10:20:28.740Z,23.92
2018-09-24T10:21:29.330Z,23.99
2018-09-24T10:22:29.973Z,23.95
2018-09-24T10:23:30.638Z,24.03
2018-09-24T10:24:31.235Z,24.06
2018-09-24T10:25:31.816Z,24.08
2018-09-24T10:26:32.402Z,24.10
2018-09-24T10:27:32.992Z,24.10
2018-09-24T10:28:33.578Z,24.17
2018-09-24T10:29:34.169Z,24.18
2018-09-24T10:30:34.759Z,24.30
2018-09-24T10:31:35.347Z,24.32
2018-09-24T10:32:35.939Z,24.38
2018-09-24T10:33:36.572Z,24.36
2018-09-24T10:34:37.170Z,24.40
2018-09-24T10:35:37.812Z,24.42
2018-09-24T10:36:38.446Z,24.51
2018-09-24T10:37:39.038Z,24.55
2018-09-24T10:38:39.628Z,24.50
2018-09-24T10:39:40.230Z,24.54
2018-09-24T10:40:40.812Z,24.61
2018-09-24T10:41:41.406Z,24.54
2018-09-24T10:42:42.048Z,24.80
2018-09-24T10:43:42.642Z,24.76
2018-09-24T10:44:43.235Z,24.88
2018-09-24T10:45:57.645Z,24.81
2018-09-24T10:46:58.212Z,25.03
2018-09-24T10:47:58.800Z,25.07
2018-09-24T10:48:59.796Z,25.10
2018-09-24T10:50:01.384Z,25.16
2018-09-24T10:51:02.033Z,25.21
2018-09-24T10:52:02.672Z,25.29
2018-09-24T10:53:03.369Z,25.28
2018-09-24T10:54:03.952Z,25.46
2018-09-24T10:56:06.138Z,25.53
2018-09-24T10:57:06.736Z,25.53
2018-09-24T10:58:07.382Z,25.66
2018-09-24T10:59:07.977Z,25.69
2018-09-24T11:00:08.575Z,25.78
2018-09-24T11:01:09.174Z,25.84
2018-09-24T11:04:12.940Z,26.09
2018-09-24T11:05:13.578Z,26.10
2018-09-24T11:06:14.178Z,26.33
2018-09-24T11:07:14.824Z,26.41
2018-09-24T11:08:15.472Z,26.40
2018-09-24T11:09:16.072Z,26.52
2018-09-24T11:10:16.698Z,26.65
2018-09-24T11:11:17.271Z,26.71
2018-09-24T11:12:17.868Z,26.73
2018-09-24T11:13:18.468Z,26.81
2018-09-24T11:14:19.118Z,26.92
2018-09-24T11:15:19.774Z,26.92
2018-09-24T11:16:20.423Z,27.00
2018-09-24T11:17:21.091Z,27.15
2018-09-24T11:18:21.516Z,27.20
2018-09-24T11:19:23.322Z,27.36
2018-09-24T11:20:23.916Z,27.39
2018-09-24T11:21:24.508Z,27.49
2018-09-24T11:22:25.157Z,27.63
2018-09-24T11:23:25.747Z,27.65
2018-09-24T11:24:26.388Z,27.75
2018-09-24T11:25:26.980Z,27.83
2018-09-24T11:27:29.062Z,28.04
2018-09-24T11:28:29.657Z,28.11
2018-09-24T11:29:31.141Z,28.27
2018-09-24T11:30:31.758Z,28.33
2018-09-24T11:31:32.463Z,28.44
2018-09-24T11:32:33.064Z,28.67
2018-09-24T11:36:18.766Z,29.16
2018-09-24T11:37:19.369Z,29.20
2018-09-24T11:38:19.974Z,29.39
2018-09-24T11:39:20.627Z,29.57
2018-09-24T11:40:21.231Z,29.59
2018-09-24T11:41:21.831Z,29.72
2018-09-24T11:42:22.434Z,29.76
2018-09-24T11:43:23.036Z,29.94
2018-09-24T11:44:23.687Z,29.97
2018-09-24T11:45:24.288Z,30.12
2018-09-24T11:46:24.925Z,30.18
2018-09-24T11:47:25.540Z,30.24
2018-09-24T11:48:26.143Z,30.23
2018-09-24T11:49:26.742Z,30.23
2018-09-24T11:50:27.392Z,29.94
2018-09-24T11:51:28.041Z,29.73
2018-09-24T11:52:28.640Z,29.71
2018-09-24T11:53:29.238Z,29.65
2018-09-24T11:54:29.837Z,29.44
2018-09-24T11:55:30.436Z,29.45
2018-09-24T11:56:31.038Z,29.32
2018-09-24T11:57:31.641Z,29.34
2018-09-24T11:58:32.235Z,29.20
2018-09-24T11:59:32.834Z,29.13
2018-09-24T12:00:33.436Z,29.17
2018-09-24T12:01:34.035Z,29.16
2018-09-24T12:02:34.638Z,29.13
2018-09-24T12:03:35.330Z,29.05
2018-09-24T12:04:35.932Z,29.12
2018-09-24T12:05:36.534Z,29.29
2018-09-24T12:06:37.191Z,29.66
2018-09-24T12:07:37.782Z,30.19
2018-09-24T12:08:38.434Z,30.55
2018-09-24T12:09:39.036Z,30.90
2018-09-24T12:10:39.694Z,31.18
2018-09-24T12:11:40.237Z,31.46
2018-09-24T12:12:40.868Z,31.58
2018-09-24T12:13:41.530Z,31.80
2018-09-24T12:14:42.129Z,31.89
2018-09-24T12:15:42.729Z,31.92
2018-09-24T12:16:43.377Z,31.90
2018-09-24T12:17:43.979Z,31.76
2018-09-24T12:18:44.577Z,31.70
2018-09-24T12:19:45.178Z,31.62
2018-09-24T12:20:45.827Z,31.44
2018-09-24T12:21:46.429Z,31.22
2018-09-24T12:22:47.027Z,31.21
2018-09-24T12:24:32.194Z,30.83
2018-09-24T12:25:32.791Z,30.54
2018-09-24T12:26:33.441Z,30.37
2018-09-24T12:27:34.042Z,30.25
2018-09-24T12:28:34.639Z,30.03
2018-09-24T12:29:35.237Z,29.69
2018-09-24T12:30:35.847Z,29.63
2018-09-24T12:31:36.434Z,29.47
2018-09-24T12:33:38.663Z,29.10
2018-09-24T12:34:39.262Z,28.89
2018-09-24T12:35:39.857Z,28.69
2018-09-24T12:36:40.454Z,28.57
2018-09-24T12:37:41.051Z,28.39
2018-09-24T12:38:41.739Z,28.37
2018-09-24T12:39:45.360Z,28.17
2018-09-24T12:40:45.959Z,28.11
2018-09-24T12:41:46.552Z,27.92
2018-09-24T12:42:47.146Z,27.85
2018-09-24T12:43:47.742Z,27.82
2018-09-24T12:44:48.388Z,27.58
2018-09-24T12:45:48.983Z,27.47
2018-09-24T12:46:49.631Z,27.45
2018-09-24T12:47:50.288Z,27.25
2018-09-24T12:48:50.856Z,27.21
2018-09-24T12:50:05.271Z,27.07
2018-09-24T12:51:05.859Z,26.95
2018-09-24T12:52:06.445Z,26.95
2018-09-24T12:53:07.041Z,26.84
2018-09-24T12:54:07.629Z,26.89
2018-09-24T12:55:08.275Z,26.83
2018-09-24T12:56:08.872Z,26.71
2018-09-24T12:57:09.468Z,26.68
2018-09-24T12:58:10.065Z,26.80
2018-09-24T12:59:10.659Z,26.83
2018-09-24T13:00:11.307Z,26.97
2018-09-24T13:01:11.903Z,27.10
2018-09-24T13:02:12.499Z,27.80
2018-09-24T13:03:13.096Z,28.78
2018-09-24T13:04:13.739Z,29.79
2018-09-24T13:05:14.375Z,30.61
2018-09-24T13:06:14.970Z,31.27
2018-09-24T13:07:33.383Z,32.03
2018-09-24T13:08:33.974Z,32.46
2018-09-24T13:09:48.329Z,32.75
2018-09-24T13:10:48.922Z,33.14
2018-09-24T13:11:49.515Z,33.36
2018-09-24T13:12:50.110Z,33.57
2018-09-24T13:13:50.700Z,33.76
2018-09-24T13:14:51.293Z,33.95
2018-09-24T13:15:51.939Z,33.96
2018-09-24T13:16:52.529Z,34.17
2018-09-24T13:19:56.324Z,34.43
2018-09-24T13:20:57.154Z,34.45
2018-09-24T13:21:58.001Z,34.43
2018-09-24T13:24:14.264Z,34.67